sensor_id;sensor_type;location;lat;lon;timestamp;pressure;altitude;pressure_sealevel;temperature;humidity
56040;BME280;43937;41.366;2.072;2022-07-04T00:00:16;100953.38;;;27.12;54.25
56040;BME280;43937;41.366;2.072;2022-07-04T00:02:43;100931.66;;;26.77;55.34
56040;BME280;43937;41.366;2.072;2022-07-04T00:05:10;100948.66;;;26.70;55.65
56040;BME280;43937;41.366;2.072;2022-07-04T00:07:37;100939.69;;;26.63;55.27
56040;BME280;43937;41.366;2.072;2022-07-04T00:10:07;100966.00;;;26.77;55.00
56040;BME280;43937;41.366;2.072;2022-07-04T00:12:33;100965.91;;;26.62;55.41
56040;BME280;43937;41.366;2.072;2022-07-04T00:14:59;100971.19;;;26.58;54.73
56040;BME280;43937;41.366;2.072;2022-07-04T00:17:24;100967.41;;;26.42;54.90
56040;BME280;43937;41.366;2.072;2022-07-04T00:19:50;100962.38;;;26.39;54.54
56040;BME280;43937;41.366;2.072;2022-07-04T00:22:15;100956.81;;;26.44;54.00
56040;BME280;43937;41.366;2.072;2022-07-04T00:24:41;100954.47;;;26.31;55.30
56040;BME280;43937;41.366;2.072;2022-07-04T00:27:06;100945.50;;;26.24;55.11
56040;BME280;43937;41.366;2.072;2022-07-04T00:29:31;100961.66;;;26.22;55.43
56040;BME280;43937;41.366;2.072;2022-07-04T00:31:58;100964.75;;;26.25;55.31
56040;BME280;43937;41.366;2.072;2022-07-04T00:34:24;100965.94;;;26.35;55.34
56040;BME280;43937;41.366;2.072;2022-07-04T00:36:49;100957.31;;;26.36;54.73
56040;BME280;43937;41.366;2.072;2022-07-04T00:39:15;100953.47;;;26.42;54.37
56040;BME280;43937;41.366;2.072;2022-07-04T00:41:41;100936.59;;;26.27;55.02
56040;BME280;43937;41.366;2.072;2022-07-04T00:44:08;100957.03;;;26.33;55.59
56040;BME280;43937;41.366;2.072;2022-07-04T00:46:34;100939.78;;;26.09;56.74
56040;BME280;43937;41.366;2.072;2022-07-04T00:49:00;100960.53;;;26.23;56.77
56040;BME280;43937;41.366;2.072;2022-07-04T00:51:27;100962.78;;;26.26;56.80
56040;BME280;43937;41.366;2.072;2022-07-04T00:53:54;100966.72;;;26.25;56.87
56040;BME280;43937;41.366;2.072;2022-07-04T00:56:20;100970.63;;;26.24;56.84
56040;BME280;43937;41.366;2.072;2022-07-04T00:58:46;100948.94;;;26.04;56.95
56040;BME280;43937;41.366;2.072;2022-07-04T01:01:11;100973.94;;;26.21;56.70
56040;BME280;43937;41.366;2.072;2022-07-04T01:03:37;100945.66;;;26.12;56.93
56040;BME280;43937;41.366;2.072;2022-07-04T01:06:03;100966.47;;;26.26;56.52
56040;BME280;43937;41.366;2.072;2022-07-04T01:08:28;100961.72;;;26.32;56.44
56040;BME280;43937;41.366;2.072;2022-07-04T01:10:54;100966.22;;;26.33;56.55
56040;BME280;43937;41.366;2.072;2022-07-04T01:13:23;100965.63;;;26.31;55.99
56040;BME280;43937;41.366;2.072;2022-07-04T01:15:50;100975.34;;;26.23;56.07
56040;BME280;43937;41.366;2.072;2022-07-04T01:18:18;100988.78;;;26.26;55.68
56040;BME280;43937;41.366;2.072;2022-07-04T01:20:44;100996.28;;;26.26;55.97
56040;BME280;43937;41.366;2.072;2022-07-04T01:23:10;100989.78;;;26.15;56.11
56040;BME280;43937;41.366;2.072;2022-07-04T01:25:35;101012.34;;;26.14;55.85
56040;BME280;43937;41.366;2.072;2022-07-04T01:28:02;101006.78;;;26.14;56.06
56040;BME280;43937;41.366;2.072;2022-07-04T01:30:29;101006.53;;;26.15;55.94
56040;BME280;43937;41.366;2.072;2022-07-04T01:32:55;100999.81;;;26.16;55.43
56040;BME280;43937;41.366;2.072;2022-07-04T01:35:21;100980.22;;;26.06;55.75
56040;BME280;43937;41.366;2.072;2022-07-04T01:37:47;100989.84;;;26.20;54.80
56040;BME280;43937;41.366;2.072;2022-07-04T01:40:13;100984.81;;;26.22;54.28
56040;BME280;43937;41.366;2.072;2022-07-04T01:42:39;100986.81;;;26.27;54.54
56040;BME280;43937;41.366;2.072;2022-07-04T01:45:05;100980.97;;;26.28;54.00
56040;BME280;43937;41.366;2.072;2022-07-04T01:47:31;100985.47;;;26.30;54.25
56040;BME280;43937;41.366;2.072;2022-07-04T01:49:57;100986.28;;;26.30;53.33
56040;BME280;43937;41.366;2.072;2022-07-04T01:52:22;100990.44;;;26.27;52.41
56040;BME280;43937;41.366;2.072;2022-07-04T01:54:48;100995.19;;;26.27;52.92
56040;BME280;43937;41.366;2.072;2022-07-04T01:57:13;100977.25;;;26.18;53.35
56040;BME280;43937;41.366;2.072;2022-07-04T01:59:39;100995.50;;;26.31;53.19
56040;BME280;43937;41.366;2.072;2022-07-04T02:02:24;100978.97;;;26.24;52.65
56040;BME280;43937;41.366;2.072;2022-07-04T02:04:50;100991.88;;;26.30;52.64
56040;BME280;43937;41.366;2.072;2022-07-04T02:07:15;100991.88;;;26.30;52.68
56040;BME280;43937;41.366;2.072;2022-07-04T02:09:41;100978.94;;;26.19;51.41
56040;BME280;43937;41.366;2.072;2022-07-04T02:12:06;100982.84;;;26.23;50.25
56040;BME280;43937;41.366;2.072;2022-07-04T02:14:50;100987.34;;;26.24;50.41
56040;BME280;43937;41.366;2.072;2022-07-04T02:17:16;100980.94;;;26.23;49.80
56040;BME280;43937;41.366;2.072;2022-07-04T02:19:41;100976.72;;;26.21;49.46
56040;BME280;43937;41.366;2.072;2022-07-04T02:22:06;100968.34;;;26.21;48.35
56040;BME280;43937;41.366;2.072;2022-07-04T02:24:32;100975.06;;;26.25;47.50
56040;BME280;43937;41.366;2.072;2022-07-04T02:26:57;100975.38;;;26.28;46.62
56040;BME280;43937;41.366;2.072;2022-07-04T02:29:23;100963.31;;;26.23;47.95
56040;BME280;43937;41.366;2.072;2022-07-04T02:31:48;100964.44;;;26.22;48.55
56040;BME280;43937;41.366;2.072;2022-07-04T02:34:14;100961.88;;;26.15;49.01
56040;BME280;43937;41.366;2.072;2022-07-04T02:36:39;100954.88;;;26.13;49.28
56040;BME280;43937;41.366;2.072;2022-07-04T02:39:05;100963.31;;;26.23;49.35
56040;BME280;43937;41.366;2.072;2022-07-04T02:41:32;100932.28;;;26.14;49.06
56040;BME280;43937;41.366;2.072;2022-07-04T02:43:58;100951.09;;;26.29;48.17
56040;BME280;43937;41.366;2.072;2022-07-04T02:46:24;100959.47;;;26.29;48.01
56040;BME280;43937;41.366;2.072;2022-07-04T02:48:49;100961.13;;;26.25;47.98
56040;BME280;43937;41.366;2.072;2022-07-04T02:51:15;100937.03;;;26.14;48.87
56040;BME280;43937;41.366;2.072;2022-07-04T02:53:40;100935.00;;;26.04;48.61
56040;BME280;43937;41.366;2.072;2022-07-04T02:56:06;100957.13;;;26.16;48.40
56040;BME280;43937;41.366;2.072;2022-07-04T02:58:32;100952.41;;;26.16;48.05
56040;BME280;43937;41.366;2.072;2022-07-04T03:00:58;100969.06;;;26.11;48.33
56040;BME280;43937;41.366;2.072;2022-07-04T03:03:24;100972.31;;;25.98;48.94
56040;BME280;43937;41.366;2.072;2022-07-04T03:05:49;100948.84;;;25.72;49.30
56040;BME280;43937;41.366;2.072;2022-07-04T03:08:15;100961.47;;;25.52;50.04
56040;BME280;43937;41.366;2.072;2022-07-04T03:10:40;100976.84;;;25.33;49.71
56040;BME280;43937;41.366;2.072;2022-07-04T03:13:05;100991.75;;;25.22;49.19
56040;BME280;43937;41.366;2.072;2022-07-04T03:15:31;100988.56;;;25.13;49.27
56040;BME280;43937;41.366;2.072;2022-07-04T03:17:57;100997.00;;;25.01;48.63
56040;BME280;43937;41.366;2.072;2022-07-04T03:20:22;100992.72;;;24.94;48.26
56040;BME280;43937;41.366;2.072;2022-07-04T03:22:48;100991.28;;;24.91;48.00
56040;BME280;43937;41.366;2.072;2022-07-04T03:25:13;100984.00;;;24.90;47.80
56040;BME280;43937;41.366;2.072;2022-07-04T03:27:39;100988.41;;;24.86;47.35
56040;BME280;43937;41.366;2.072;2022-07-04T03:30:05;100977.97;;;24.76;47.61
56040;BME280;43937;41.366;2.072;2022-07-04T03:32:30;100960.25;;;24.65;46.95
56040;BME280;43937;41.366;2.072;2022-07-04T03:34:56;100939.97;;;24.48;46.46
56040;BME280;43937;41.366;2.072;2022-07-04T03:37:21;100955.38;;;24.73;46.68
56040;BME280;43937;41.366;2.072;2022-07-04T03:39:47;100949.63;;;24.79;45.93
56040;BME280;43937;41.366;2.072;2022-07-04T03:42:12;100945.03;;;24.90;45.76
56040;BME280;43937;41.366;2.072;2022-07-04T03:44:37;100940.88;;;24.92;45.18
56040;BME280;43937;41.366;2.072;2022-07-04T03:47:03;100931.69;;;24.92;44.80
56040;BME280;43937;41.366;2.072;2022-07-04T03:49:28;100910.38;;;24.81;44.87
56040;BME280;43937;41.366;2.072;2022-07-04T03:51:54;100939.47;;;24.90;44.78
56040;BME280;43937;41.366;2.072;2022-07-04T03:54:19;100928.31;;;24.90;44.18
56040;BME280;43937;41.366;2.072;2022-07-04T03:56:45;100924.97;;;24.88;44.50
56040;BME280;43937;41.366;2.072;2022-07-04T03:59:10;100912.84;;;24.99;43.35
56040;BME280;43937;41.366;2.072;2022-07-04T04:01:36;100916.75;;;24.98;43.13
56040;BME280;43937;41.366;2.072;2022-07-04T04:04:01;100900.44;;;24.85;43.19
56040;BME280;43937;41.366;2.072;2022-07-04T04:06:45;100922.31;;;24.76;41.92
56040;BME280;43937;41.366;2.072;2022-07-04T04:09:10;100902.41;;;24.67;39.35
56040;BME280;43937;41.366;2.072;2022-07-04T04:11:42;100887.56;;;24.62;38.52
56040;BME280;43937;41.366;2.072;2022-07-04T04:14:07;100913.13;;;24.76;38.70
56040;BME280;43937;41.366;2.072;2022-07-04T04:16:32;100874.09;;;24.54;38.98
56040;BME280;43937;41.366;2.072;2022-07-04T04:18:58;100892.94;;;24.68;38.76
56040;BME280;43937;41.366;2.072;2022-07-04T04:21:23;100891.28;;;24.67;38.32
56040;BME280;43937;41.366;2.072;2022-07-04T04:23:49;100895.81;;;24.74;38.72
56040;BME280;43937;41.366;2.072;2022-07-04T04:26:14;100881.31;;;24.72;39.53
56040;BME280;43937;41.366;2.072;2022-07-04T04:28:40;100883.00;;;24.73;40.90
56040;BME280;43937;41.366;2.072;2022-07-04T04:31:07;100896.84;;;24.67;43.63
56040;BME280;43937;41.366;2.072;2022-07-04T04:33:33;100905.78;;;24.70;44.52
56040;BME280;43937;41.366;2.072;2022-07-04T04:35:59;100878.63;;;24.60;44.48
56040;BME280;43937;41.366;2.072;2022-07-04T04:38:24;100889.09;;;24.70;44.51
56040;BME280;43937;41.366;2.072;2022-07-04T04:40:50;100886.50;;;24.85;44.09
56040;BME280;43937;41.366;2.072;2022-07-04T04:43:15;100851.47;;;24.67;44.89
56040;BME280;43937;41.366;2.072;2022-07-04T04:45:41;100885.88;;;25.00;46.20
56040;BME280;43937;41.366;2.072;2022-07-04T04:48:06;100876.09;;;24.97;46.26
56040;BME280;43937;41.366;2.072;2022-07-04T04:50:31;100887.34;;;25.07;46.16
56040;BME280;43937;41.366;2.072;2022-07-04T04:52:57;100886.41;;;25.19;45.98
56040;BME280;43937;41.366;2.072;2022-07-04T04:55:23;100888.22;;;25.30;45.85
56040;BME280;43937;41.366;2.072;2022-07-04T04:57:48;100888.84;;;25.37;45.53
56040;BME280;43937;41.366;2.072;2022-07-04T05:00:14;100882.84;;;25.50;44.97
56040;BME280;43937;41.366;2.072;2022-07-04T05:02:39;100881.84;;;25.62;44.88
56040;BME280;43937;41.366;2.072;2022-07-04T05:05:05;100866.84;;;25.68;44.18
56040;BME280;43937;41.366;2.072;2022-07-04T05:07:31;100887.72;;;25.87;44.42
56040;BME280;43937;41.366;2.072;2022-07-04T05:09:57;100842.56;;;25.90;43.61
56040;BME280;43937;41.366;2.072;2022-07-04T05:12:24;100872.19;;;26.34;43.16
56040;BME280;43937;41.366;2.072;2022-07-04T05:14:49;100868.13;;;26.52;42.61
56040;BME280;43937;41.366;2.072;2022-07-04T05:17:15;100878.28;;;26.68;42.57
56040;BME280;43937;41.366;2.072;2022-07-04T05:19:40;100840.31;;;26.67;42.50
56040;BME280;43937;41.366;2.072;2022-07-04T05:22:06;100864.50;;;27.09;41.62
56040;BME280;43937;41.366;2.072;2022-07-04T05:24:32;100863.59;;;27.81;39.53
56040;BME280;43937;41.366;2.072;2022-07-04T05:26:57;100850.97;;;28.45;38.59
56040;BME280;43937;41.366;2.072;2022-07-04T05:29:22;100858.88;;;29.13;37.50
56040;BME280;43937;41.366;2.072;2022-07-04T05:31:48;100846.84;;;29.62;35.24
56040;BME280;43937;41.366;2.072;2022-07-04T05:34:13;100881.06;;;30.33;33.96
56040;BME280;43937;41.366;2.072;2022-07-04T05:36:41;100867.72;;;30.73;33.64
56040;BME280;43937;41.366;2.072;2022-07-04T05:39:09;100875.09;;;31.17;33.46
56040;BME280;43937;41.366;2.072;2022-07-04T05:41:34;100874.88;;;31.70;32.56
56040;BME280;43937;41.366;2.072;2022-07-04T05:43:59;100865.53;;;32.26;30.64
56040;BME280;43937;41.366;2.072;2022-07-04T05:46:25;100849.97;;;33.03;29.44
56040;BME280;43937;41.366;2.072;2022-07-04T05:48:51;100873.34;;;33.67;29.11
56040;BME280;43937;41.366;2.072;2022-07-04T05:51:16;100867.53;;;33.86;29.06
56040;BME280;43937;41.366;2.072;2022-07-04T05:53:42;100864.31;;;33.79;28.53
56040;BME280;43937;41.366;2.072;2022-07-04T05:56:07;100879.78;;;33.82;28.55
56040;BME280;43937;41.366;2.072;2022-07-04T05:58:33;100886.50;;;34.08;28.66
56040;BME280;43937;41.366;2.072;2022-07-04T06:00:58;100867.44;;;34.45;28.42
56040;BME280;43937;41.366;2.072;2022-07-04T06:03:23;100880.69;;;34.67;27.25
56040;BME280;43937;41.366;2.072;2022-07-04T06:05:49;100881.75;;;34.88;27.50
56040;BME280;43937;41.366;2.072;2022-07-04T06:08:15;100850.91;;;35.09;26.48
56040;BME280;43937;41.366;2.072;2022-07-04T06:10:40;100865.94;;;35.36;26.78
56040;BME280;43937;41.366;2.072;2022-07-04T06:13:06;100859.13;;;35.46;26.02
56040;BME280;43937;41.366;2.072;2022-07-04T06:15:32;100855.50;;;35.63;25.53
56040;BME280;43937;41.366;2.072;2022-07-04T06:17:57;100852.31;;;36.16;24.80
56040;BME280;43937;41.366;2.072;2022-07-04T06:20:22;100838.56;;;36.36;24.64
56040;BME280;43937;41.366;2.072;2022-07-04T06:22:48;100811.91;;;36.75;23.71
56040;BME280;43937;41.366;2.072;2022-07-04T06:25:17;100828.44;;;37.03;23.70
56040;BME280;43937;41.366;2.072;2022-07-04T06:27:45;100828.31;;;37.50;23.27
56040;BME280;43937;41.366;2.072;2022-07-04T06:30:12;100836.50;;;37.85;21.86
56040;BME280;43937;41.366;2.072;2022-07-04T06:32:42;100835.78;;;38.54;21.51
56040;BME280;43937;41.366;2.072;2022-07-04T06:35:08;100841.22;;;39.33;20.38
56040;BME280;43937;41.366;2.072;2022-07-04T06:37:52;100838.59;;;39.80;19.69
56040;BME280;43937;41.366;2.072;2022-07-04T06:40:18;100837.69;;;39.64;20.26
56040;BME280;43937;41.366;2.072;2022-07-04T06:42:43;100824.06;;;40.14;19.61
56040;BME280;43937;41.366;2.072;2022-07-04T06:45:09;100830.06;;;40.88;18.77
56040;BME280;43937;41.366;2.072;2022-07-04T06:47:35;100841.69;;;40.47;18.67
56040;BME280;43937;41.366;2.072;2022-07-04T06:50:00;100834.78;;;40.80;18.51
56040;BME280;43937;41.366;2.072;2022-07-04T06:52:26;100842.63;;;41.34;18.15
56040;BME280;43937;41.366;2.072;2022-07-04T06:54:51;100832.63;;;41.63;17.90
56040;BME280;43937;41.366;2.072;2022-07-04T06:57:17;100832.50;;;41.21;17.86
56040;BME280;43937;41.366;2.072;2022-07-04T06:59:45;100830.72;;;41.32;17.94
56040;BME280;43937;41.366;2.072;2022-07-04T07:02:10;100837.75;;;41.54;17.08
56040;BME280;43937;41.366;2.072;2022-07-04T07:04:36;100833.47;;;41.83;16.98
56040;BME280;43937;41.366;2.072;2022-07-04T07:07:03;100837.34;;;43.06;16.29
56040;BME280;43937;41.366;2.072;2022-07-04T07:09:28;100836.22;;;43.41;15.40
56040;BME280;43937;41.366;2.072;2022-07-04T07:11:53;100826.56;;;43.22;15.78
56040;BME280;43937;41.366;2.072;2022-07-04T07:14:19;100822.53;;;43.57;14.95
56040;BME280;43937;41.366;2.072;2022-07-04T07:16:45;100814.38;;;43.93;14.71
56040;BME280;43937;41.366;2.072;2022-07-04T07:19:10;100825.91;;;44.34;14.14
56040;BME280;43937;41.366;2.072;2022-07-04T07:21:35;100829.19;;;44.84;13.97
56040;BME280;43937;41.366;2.072;2022-07-04T07:24:01;100828.84;;;44.96;13.48
56040;BME280;43937;41.366;2.072;2022-07-04T07:26:28;100830.81;;;45.47;12.71
56040;BME280;43937;41.366;2.072;2022-07-04T07:28:53;100834.38;;;44.68;12.94
56040;BME280;43937;41.366;2.072;2022-07-04T07:31:19;100830.72;;;44.30;13.45
56040;BME280;43937;41.366;2.072;2022-07-04T07:33:44;100827.69;;;44.53;13.49
56040;BME280;43937;41.366;2.072;2022-07-04T07:36:10;100831.75;;;44.48;13.29
56040;BME280;43937;41.366;2.072;2022-07-04T07:38:35;100835.22;;;45.23;12.12
56040;BME280;43937;41.366;2.072;2022-07-04T07:41:01;100854.50;;;46.14;11.78
56040;BME280;43937;41.366;2.072;2022-07-04T07:43:26;100840.19;;;46.43;11.59
56040;BME280;43937;41.366;2.072;2022-07-04T07:45:52;100854.59;;;46.89;11.41
56040;BME280;43937;41.366;2.072;2022-07-04T07:48:17;100829.84;;;47.27;11.04
56040;BME280;43937;41.366;2.072;2022-07-04T07:50:43;100843.88;;;46.29;11.15
56040;BME280;43937;41.366;2.072;2022-07-04T07:53:08;100855.81;;;46.27;11.22
56040;BME280;43937;41.366;2.072;2022-07-04T07:55:33;100841.34;;;46.20;11.05
56040;BME280;43937;41.366;2.072;2022-07-04T07:57:59;100859.47;;;46.24;11.21
56040;BME280;43937;41.366;2.072;2022-07-04T08:00:25;100856.22;;;46.44;10.88
56040;BME280;43937;41.366;2.072;2022-07-04T08:02:50;100852.03;;;47.38;10.69
56040;BME280;43937;41.366;2.072;2022-07-04T08:05:35;100862.22;;;47.71;10.67
56040;BME280;43937;41.366;2.072;2022-07-04T08:08:00;100866.22;;;48.06;10.00
56040;BME280;43937;41.366;2.072;2022-07-04T08:10:26;100881.47;;;47.99;10.45
56040;BME280;43937;41.366;2.072;2022-07-04T08:12:52;100885.00;;;48.32;9.81
56040;BME280;43937;41.366;2.072;2022-07-04T08:15:17;100880.41;;;48.49;9.17
56040;BME280;43937;41.366;2.072;2022-07-04T08:17:43;100877.88;;;48.51;10.30
56040;BME280;43937;41.366;2.072;2022-07-04T08:20:10;100882.44;;;48.45;9.95
56040;BME280;43937;41.366;2.072;2022-07-04T08:22:35;100892.81;;;48.42;10.07
56040;BME280;43937;41.366;2.072;2022-07-04T08:25:01;100897.19;;;48.65;9.70
56040;BME280;43937;41.366;2.072;2022-07-04T08:27:27;100899.50;;;48.88;9.77
56040;BME280;43937;41.366;2.072;2022-07-04T08:29:52;100909.19;;;49.12;9.48
56040;BME280;43937;41.366;2.072;2022-07-04T08:32:18;100907.34;;;49.28;9.20
56040;BME280;43937;41.366;2.072;2022-07-04T08:34:43;100893.81;;;49.22;8.88
56040;BME280;43937;41.366;2.072;2022-07-04T08:37:09;100901.47;;;49.36;9.20
56040;BME280;43937;41.366;2.072;2022-07-04T08:39:35;100899.69;;;49.07;9.36
56040;BME280;43937;41.366;2.072;2022-07-04T08:42:03;100892.81;;;48.94;9.85
56040;BME280;43937;41.366;2.072;2022-07-04T08:44:30;100886.56;;;47.70;10.20
56040;BME280;43937;41.366;2.072;2022-07-04T08:46:59;100887.94;;;46.87;11.72
56040;BME280;43937;41.366;2.072;2022-07-04T08:49:30;100899.19;;;45.83;11.49
56040;BME280;43937;41.366;2.072;2022-07-04T08:52:05;100905.25;;;45.60;12.81
56040;BME280;43937;41.366;2.072;2022-07-04T08:54:32;100894.22;;;44.62;13.18
56040;BME280;43937;41.366;2.072;2022-07-04T08:57:17;100886.78;;;44.20;13.08
56040;BME280;43937;41.366;2.072;2022-07-04T09:00:03;100881.41;;;42.98;14.67
56040;BME280;43937;41.366;2.072;2022-07-04T09:02:29;100890.06;;;42.13;15.06
56040;BME280;43937;41.366;2.072;2022-07-04T09:04:55;100894.88;;;42.51;15.10
56040;BME280;43937;41.366;2.072;2022-07-04T09:07:21;100895.31;;;42.11;15.55
56040;BME280;43937;41.366;2.072;2022-07-04T09:09:47;100904.47;;;41.62;16.14
56040;BME280;43937;41.366;2.072;2022-07-04T09:12:13;100909.00;;;40.80;17.04
56040;BME280;43937;41.366;2.072;2022-07-04T09:14:39;100910.06;;;40.16;17.16
56040;BME280;43937;41.366;2.072;2022-07-04T09:17:05;100904.19;;;38.82;18.81
56040;BME280;43937;41.366;2.072;2022-07-04T09:19:31;100887.69;;;38.63;19.71
56040;BME280;43937;41.366;2.072;2022-07-04T09:22:02;100906.97;;;38.45;20.01
56040;BME280;43937;41.366;2.072;2022-07-04T09:24:44;100919.66;;;39.30;19.76
56040;BME280;43937;41.366;2.072;2022-07-04T09:27:10;100919.53;;;39.02;19.51
56040;BME280;43937;41.366;2.072;2022-07-04T09:29:51;100896.53;;;39.32;18.69
56040;BME280;43937;41.366;2.072;2022-07-04T09:32:42;100935.66;;;39.23;19.50
56040;BME280;43937;41.366;2.072;2022-07-04T09:35:22;100928.28;;;38.97;19.67
56040;BME280;43937;41.366;2.072;2022-07-04T09:37:52;100929.72;;;39.15;18.93
56040;BME280;43937;41.366;2.072;2022-07-04T09:42:55;100929.16;;;38.98;19.93
56040;BME280;43937;41.366;2.072;2022-07-04T09:45:21;100923.22;;;38.24;19.48
56040;BME280;43937;41.366;2.072;2022-07-04T09:47:52;100925.28;;;38.36;19.15
56040;BME280;43937;41.366;2.072;2022-07-04T09:50:20;100935.03;;;37.51;19.98
56040;BME280;43937;41.366;2.072;2022-07-04T09:52:48;100929.63;;;38.21;18.40
56040;BME280;43937;41.366;2.072;2022-07-04T09:55:20;100930.69;;;38.49;17.56
56040;BME280;43937;41.366;2.072;2022-07-04T09:57:46;100931.31;;;38.55;16.47
56040;BME280;43937;41.366;2.072;2022-07-04T10:02:50;100937.03;;;38.67;15.28
56040;BME280;43937;41.366;2.072;2022-07-04T10:05:29;100937.38;;;37.91;15.50
56040;BME280;43937;41.366;2.072;2022-07-04T10:07:57;100932.16;;;38.35;14.92
56040;BME280;43937;41.366;2.072;2022-07-04T10:12:54;100939.97;;;38.59;14.55
56040;BME280;43937;41.366;2.072;2022-07-04T10:15:20;100946.41;;;38.14;14.82
56040;BME280;43937;41.366;2.072;2022-07-04T10:17:46;100944.75;;;37.50;15.67
56040;BME280;43937;41.366;2.072;2022-07-04T10:20:12;100931.56;;;36.68;15.93
56040;BME280;43937;41.366;2.072;2022-07-04T10:22:41;100925.69;;;37.50;16.06
56040;BME280;43937;41.366;2.072;2022-07-04T10:25:08;100948.47;;;36.95;16.27
56040;BME280;43937;41.366;2.072;2022-07-04T10:27:34;100943.75;;;37.16;15.14
56040;BME280;43937;41.366;2.072;2022-07-04T10:30:02;100957.94;;;37.16;15.72
56040;BME280;43937;41.366;2.072;2022-07-04T10:32:29;100956.44;;;37.40;15.86
56040;BME280;43937;41.366;2.072;2022-07-04T10:34:54;100950.69;;;36.89;15.15
56040;BME280;43937;41.366;2.072;2022-07-04T10:37:20;100960.13;;;36.37;14.80
56040;BME280;43937;41.366;2.072;2022-07-04T10:39:47;100954.50;;;36.93;14.67
56040;BME280;43937;41.366;2.072;2022-07-04T10:42:25;100960.84;;;36.90;16.04
56040;BME280;43937;41.366;2.072;2022-07-04T10:44:52;100946.38;;;36.74;15.76
56040;BME280;43937;41.366;2.072;2022-07-04T10:47:25;100963.84;;;36.85;16.11
56040;BME280;43937;41.366;2.072;2022-07-04T10:49:52;100962.97;;;36.37;17.98
56040;BME280;43937;41.366;2.072;2022-07-04T10:52:18;100963.16;;;36.06;19.64
56040;BME280;43937;41.366;2.072;2022-07-04T10:54:44;100948.59;;;35.73;21.00
56040;BME280;43937;41.366;2.072;2022-07-04T11:00:21;100970.31;;;34.98;21.84
56040;BME280;43937;41.366;2.072;2022-07-04T11:02:35;100963.59;;;34.85;21.40
56040;BME280;43937;41.366;2.072;2022-07-04T11:05:06;100968.00;;;35.00;20.80
56040;BME280;43937;41.366;2.072;2022-07-04T11:17:49;100967.13;;;35.22;18.10
56040;BME280;43937;41.366;2.072;2022-07-04T11:20:17;100963.66;;;34.94;18.88
56040;BME280;43937;41.366;2.072;2022-07-04T11:22:43;100953.97;;;34.32;19.56
56040;BME280;43937;41.366;2.072;2022-07-04T11:25:10;100960.31;;;34.60;20.73
56040;BME280;43937;41.366;2.072;2022-07-04T11:27:37;100970.94;;;34.86;20.88
56040;BME280;43937;41.366;2.072;2022-07-04T11:30:03;100963.06;;;34.07;21.99
56040;BME280;43937;41.366;2.072;2022-07-04T11:32:33;100950.63;;;33.94;22.42
56040;BME280;43937;41.366;2.072;2022-07-04T11:34:59;100959.31;;;34.56;20.52
56040;BME280;43937;41.366;2.072;2022-07-04T11:37:25;100954.44;;;33.89;21.21
56040;BME280;43937;41.366;2.072;2022-07-04T11:39:51;100948.38;;;34.18;22.31
56040;BME280;43937;41.366;2.072;2022-07-04T11:42:18;100950.69;;;34.16;22.72
56040;BME280;43937;41.366;2.072;2022-07-04T11:45:02;100945.16;;;34.11;22.79
56040;BME280;43937;41.366;2.072;2022-07-04T11:49:58;100943.94;;;34.26;22.01
56040;BME280;43937;41.366;2.072;2022-07-04T11:52:31;100928.69;;;33.91;22.77
56040;BME280;43937;41.366;2.072;2022-07-04T11:55:04;100937.00;;;33.73;21.16
56040;BME280;43937;41.366;2.072;2022-07-04T11:57:34;100915.94;;;34.16;20.82
56040;BME280;43937;41.366;2.072;2022-07-04T12:00:04;100946.97;;;34.30;20.62
56040;BME280;43937;41.366;2.072;2022-07-04T12:02:31;100951.34;;;34.13;21.63
56040;BME280;43937;41.366;2.072;2022-07-04T12:04:59;100939.97;;;33.68;22.44
56040;BME280;43937;41.366;2.072;2022-07-04T12:07:27;100937.91;;;34.41;23.15
56040;BME280;43937;41.366;2.072;2022-07-04T12:09:53;100910.47;;;34.42;22.90
56040;BME280;43937;41.366;2.072;2022-07-04T12:12:20;100946.81;;;34.80;23.95
56040;BME280;43937;41.366;2.072;2022-07-04T12:15:05;100931.13;;;34.51;24.40
56040;BME280;43937;41.366;2.072;2022-07-04T12:17:38;100939.69;;;34.91;23.81
56040;BME280;43937;41.366;2.072;2022-07-04T12:20:11;100934.50;;;34.31;25.78
56040;BME280;43937;41.366;2.072;2022-07-04T12:22:40;100926.63;;;33.83;26.29
56040;BME280;43937;41.366;2.072;2022-07-04T12:25:18;100937.34;;;33.94;26.61
56040;BME280;43937;41.366;2.072;2022-07-04T12:27:51;100932.69;;;33.90;27.49
56040;BME280;43937;41.366;2.072;2022-07-04T12:30:17;100942.97;;;33.72;28.69
56040;BME280;43937;41.366;2.072;2022-07-04T12:32:49;100927.34;;;33.38;28.30
56040;BME280;43937;41.366;2.072;2022-07-04T12:38:33;100916.53;;;34.27;26.46
56040;BME280;43937;41.366;2.072;2022-07-04T12:41:05;100930.63;;;34.49;26.80
56040;BME280;43937;41.366;2.072;2022-07-04T12:46:29;100928.31;;;33.20;26.01
56040;BME280;43937;41.366;2.072;2022-07-04T12:48:56;100928.19;;;33.11;27.10
56040;BME280;43937;41.366;2.072;2022-07-04T12:53:48;100922.97;;;33.18;28.67
56040;BME280;43937;41.366;2.072;2022-07-04T12:58:53;100919.81;;;33.34;27.91
56040;BME280;43937;41.366;2.072;2022-07-04T13:01:18;100921.16;;;33.22;27.36
56040;BME280;43937;41.366;2.072;2022-07-04T13:03:44;100930.88;;;33.94;26.70
56040;BME280;43937;41.366;2.072;2022-07-04T13:06:09;100906.91;;;33.91;26.47
56040;BME280;43937;41.366;2.072;2022-07-04T13:08:34;100910.44;;;33.74;26.83
56040;BME280;43937;41.366;2.072;2022-07-04T13:11:00;100899.88;;;33.16;26.97
56040;BME280;43937;41.366;2.072;2022-07-04T13:13:44;100911.38;;;33.20;28.21
56040;BME280;43937;41.366;2.072;2022-07-04T13:16:09;100845.50;;;32.28;26.45
56040;BME280;43937;41.366;2.072;2022-07-04T13:18:35;100894.84;;;32.85;28.05
56040;BME280;43937;41.366;2.072;2022-07-04T13:21:01;100908.03;;;33.18;26.85
56040;BME280;43937;41.366;2.072;2022-07-04T13:23:26;100905.84;;;33.01;27.87